Dominia — ICFW — position and weather

sailwx.info

Track history (hours):
 
Tides and Currents Weather Stations Pressure Air Temp Water Temp Dewpoint Dewpoint Depression Visibility Wind Speed Wind Dir Waves Ship Positions

Dominia

Last reported at 2014-Sep-03 01:23 UTC. Time now 2014-Sep-03 02:23 UTC.
Position N 36°31' E 026°49'.

Length 176 m; draft 7.5 m.

Type: Ship (hazmat cat A). MMSI: 247273400.

Date/timePositionNaut miles runAvg speedWind from/ knotsBaromVisibWave heightAir tempDewpointWater temp
2014-Sep-03 01:23N 36°31' E 026°49'1113.7
2014-Sep-03 00:33N 36°22' E 026°59'1413.7
2014-Sep-02 23:33N 36°12' E 027°10'1313.3
2014-Sep-02 22:33N 36°02' E 027°21'1312.9
2014-Sep-02 21:33N 35°53' E 027°32'1313.5
2014-Sep-02 20:33N 35°46' E 027°46'24912.4
2014-Sep-02 00:31N 34°15' E 032°28'1212.4
2014-Sep-01 23:31N 34°11' E 032°43'1712.5
2014-Sep-01 22:10N 34°05' E 033°02'5812.5
2014-Sep-01 17:33N 33°57' E 034°11'1212.6
2014-Sep-01 16:33N 33°55' E 034°26'1312.5
2014-Sep-01 15:30N 33°55' E 034°42'1212.3
2014-Sep-01 14:32N 33°55' E 034°56'  
2014-Aug-28 00:22N 33°55' E 035°31'0 0.0
2014-Aug-27 22:31N 33°55' E 035°31'0 0.0
2014-Aug-27 20:28N 33°55' E 035°31'0 0.0
2014-Aug-27 19:04N 33°55' E 035°31'0 0.0
2014-Aug-27 18:19N 33°55' E 035°31'0 0.0
2014-Aug-27 17:31N 33°55' E 035°31'44 3.1
2014-Aug-27 03:28N 33°57' E 034°39'1112.6
2014-Aug-27 02:33N 33°58' E 034°25'1612.7
2014-Aug-27 01:17N 33°59' E 034°05'1012.9
2014-Aug-27 00:28N 34°00' E 033°53'1212.9
2014-Aug-26 23:33N 34°02' E 033°39'1712.8
2014-Aug-26 22:15N 34°03' E 033°19'912.7
2014-Aug-26 21:33N 34°04' E 033°08'1312.8
2014-Aug-26 20:33N 34°05' E 032°53'1312.6
2014-Aug-26 19:33N 34°07' E 032°38'1312.8
2014-Aug-26 18:33N 34°08' E 032°22'1312.9
2014-Aug-26 17:33N 34°09' E 032°07'1312.8
2014-Aug-26 16:34N 34°10' E 031°51'1110.8
2014-Aug-26 15:34N 34°11' E 031°38'10 9.7
2014-Aug-26 14:33N 34°13' E 031°27'1312.8
2014-Aug-26 13:33N 34°14' E 031°11'1312.9
2014-Aug-26 12:34N 34°15' E 030°56'1313.0
2014-Aug-26 11:34N 34°16' E 030°40'1912.9
2014-Aug-26 10:03N 34°18' E 030°17'11112.7
2014-Aug-26 01:18N 34°29' E 028°02'25512.2
2014-Aug-25 04:21N 35°09' E 022°55'1012.0
2014-Aug-25 03:33N 35°10' E 022°44'10412.4
2014-Aug-24 19:12N 35°23' E 020°37'  
Track history (hours):
 
Tides and Currents Weather Stations Pressure Air Temp Water Temp Dewpoint Dewpoint Depression Visibility Wind Speed Wind Dir Waves Ship Positions

Dominia

Last reported at 2014-Sep-03 01:23 UTC. Time now 2014-Sep-03 02:23 UTC.
Position N 36°31' E 026°49'.

Length 176 m; draft 7.5 m.

Type: Ship (hazmat cat A). MMSI: 247273400.

Date/timePositionNaut miles runAvg speedWind from/ knotsBaromVisibWave heightAir tempDewpointWater temp
2014-Sep-03 01:23N 36°31' E 026°49'1113.7
2014-Sep-03 00:33N 36°22' E 026°59'1413.7
2014-Sep-02 23:33N 36°12' E 027°10'1313.3
2014-Sep-02 22:33N 36°02' E 027°21'1312.9
2014-Sep-02 21:33N 35°53' E 027°32'1313.5
2014-Sep-02 20:33N 35°46' E 027°46'24912.4
2014-Sep-02 00:31N 34°15' E 032°28'1212.4
2014-Sep-01 23:31N 34°11' E 032°43'1712.5
2014-Sep-01 22:10N 34°05' E 033°02'5812.5
2014-Sep-01 17:33N 33°57' E 034°11'1212.6
2014-Sep-01 16:33N 33°55' E 034°26'1312.5
2014-Sep-01 15:30N 33°55' E 034°42'1212.3
2014-Sep-01 14:32N 33°55' E 034°56'  
2014-Aug-28 00:22N 33°55' E 035°31'0 0.0
2014-Aug-27 22:31N 33°55' E 035°31'0 0.0
2014-Aug-27 20:28N 33°55' E 035°31'0 0.0
2014-Aug-27 19:04N 33°55' E 035°31'0 0.0
2014-Aug-27 18:19N 33°55' E 035°31'0 0.0
2014-Aug-27 17:31N 33°55' E 035°31'44 3.1
2014-Aug-27 03:28N 33°57' E 034°39'1112.6
2014-Aug-27 02:33N 33°58' E 034°25'1612.7
2014-Aug-27 01:17N 33°59' E 034°05'1012.9
2014-Aug-27 00:28N 34°00' E 033°53'1212.9
2014-Aug-26 23:33N 34°02' E 033°39'1712.8
2014-Aug-26 22:15N 34°03' E 033°19'912.7
2014-Aug-26 21:33N 34°04' E 033°08'1312.8
2014-Aug-26 20:33N 34°05' E 032°53'1312.6
2014-Aug-26 19:33N 34°07' E 032°38'1312.8
2014-Aug-26 18:33N 34°08' E 032°22'1312.9
2014-Aug-26 17:33N 34°09' E 032°07'1312.8
2014-Aug-26 16:34N 34°10' E 031°51'1110.8
2014-Aug-26 15:34N 34°11' E 031°38'10 9.7
2014-Aug-26 14:33N 34°13' E 031°27'1312.8
2014-Aug-26 13:33N 34°14' E 031°11'1312.9
2014-Aug-26 12:34N 34°15' E 030°56'1313.0
2014-Aug-26 11:34N 34°16' E 030°40'1912.9
2014-Aug-26 10:03N 34°18' E 030°17'11112.7
2014-Aug-26 01:18N 34°29' E 028°02'25512.2
2014-Aug-25 04:21N 35°09' E 022°55'1012.0
2014-Aug-25 03:33N 35°10' E 022°44'10412.4
2014-Aug-24 19:12N 35°23' E 020°37'  

Dump ship's entire track history